Michipicoten — CFG8060 — position and weather

sailwx.info

Track history (hours):
 
Tides and Currents Weather Stations Pressure Air Temp Water Temp Dewpoint Dewpoint Depression Visibility Wind Speed Wind Dir Waves Ship Positions

Michipicoten

Last reported at 2016-Apr-23 11:24 UTC. Time now 2016-May-01 04:14 UTC.
Position N 46°18' W 083°46'.

Length 213 m; draft 7.3 m.

Type: Cargo ship. MMSI: 316002501.

Date/timePositionNaut miles runAvg speedWind from/ knotsBaromVisibWave heightAir tempDewpointWater temp
2016-Apr-23 11:24N 46°18' W 083°46'0 0.0
2016-Apr-23 10:07N 46°17' W 083°46'0 0.0
2016-Apr-23 09:32N 46°17' W 083°46'0 0.0
2016-Apr-23 07:28N 46°17' W 083°46'0 0.0
2016-Apr-23 06:13N 46°17' W 083°46'17 3.6
2016-Apr-23 01:33N 46°03' W 083°57'328 8.9
2016-Apr-21 12:33N 46°53' W 091°48'1313.2
2016-Apr-21 11:32N 46°47' W 092°05'3 2.6
2016-Apr-21 10:33N 46°45' W 092°08'0 0.0
2016-Apr-21 09:33N 46°45' W 092°08'0 0.0
2016-Apr-21 08:33N 46°45' W 092°08'0 0.0
2016-Apr-21 07:33N 46°45' W 092°08'0 0.0
2016-Apr-21 06:33N 46°45' W 092°08'0 0.2
2016-Apr-21 05:33N 46°45' W 092°08'2 1.8
2016-Apr-21 04:33N 46°46' W 092°06'1212.0
2016-Apr-21 03:33N 46°51' W 091°50'1414.2
2016-Apr-21 02:33N 46°56' W 091°31'29313.1
2016-Apr-20 04:09N 46°30' W 084°25'2 3.4
2016-Apr-20 03:33N 46°31' W 084°23'0 0.0
2016-Apr-20 02:33N 46°31' W 084°23'0 0.0
2016-Apr-20 01:30N 46°31' W 084°23'0 0.0
2016-Apr-20 00:33N 46°31' W 084°23'16 5.3
2016-Apr-19 21:26N 46°37' W 084°45'29012.7
2016-Apr-18 22:32N 46°53' W 091°48'1313.0
2016-Apr-18 21:33N 46°47' W 092°05'3 2.9
2016-Apr-18 20:33N 46°45' W 092°08'0 0.0
2016-Apr-18 19:33N 46°45' W 092°08'0 0.0
2016-Apr-18 18:33N 46°45' W 092°08'0 0.0
2016-Apr-18 17:33N 46°45' W 092°08'0 0.1
2016-Apr-18 16:33N 46°45' W 092°08'2 1.6
2016-Apr-18 15:33N 46°45' W 092°06'0 0.0
2016-Apr-18 14:33N 46°45' W 092°06'0 0.1
2016-Apr-18 13:33N 46°46' W 092°06'7 7.0
2016-Apr-18 12:33N 46°49' W 091°57'1414.2
2016-Apr-18 11:33N 46°54' W 091°38'29513.3
2016-Apr-17 13:19N 46°27' W 084°29'6 3.1
2016-Apr-17 11:27N 46°31' W 084°23'0 0.0
2016-Apr-17 10:30N 46°31' W 084°23'0 0.0
2016-Apr-17 09:33N 46°31' W 084°23'0 0.0
2016-Apr-17 08:30N 46°31' W 084°23'29912.0
2016-Apr-16 07:32N 46°57' W 091°37'1313.5
2016-Apr-16 06:34N 46°51' W 091°54'10 9.9
2016-Apr-16 05:34N 46°45' W 092°06'1 1.3
2016-Apr-16 04:33N 46°45' W 092°08'0 0.0
2016-Apr-16 03:34N 46°45' W 092°08'0 0.0
2016-Apr-16 02:34N 46°45' W 092°08'0 0.1
2016-Apr-16 01:33N 46°45' W 092°08'0 0.0
2016-Apr-16 00:33N 46°45' W 092°08'2 1.7
2016-Apr-15 23:32N 46°46' W 092°06'1211.7
2016-Apr-15 22:33N 46°51' W 091°51'1414.3
2016-Apr-15 21:33N 46°56' W 091°31'1414.2
2016-Apr-15 20:33N 47°01' W 091°12'  
Track history (hours):
 
Tides and Currents Weather Stations Pressure Air Temp Water Temp Dewpoint Dewpoint Depression Visibility Wind Speed Wind Dir Waves Ship Positions

Michipicoten

Last reported at 2016-Apr-23 11:24 UTC. Time now 2016-May-01 04:14 UTC.
Position N 46°18' W 083°46'.

Length 213 m; draft 7.3 m.

Type: Cargo ship. MMSI: 316002501.

Date/timePositionNaut miles runAvg speedWind from/ knotsBaromVisibWave heightAir tempDewpointWater temp
2016-Apr-23 11:24N 46°18' W 083°46'0 0.0
2016-Apr-23 10:07N 46°17' W 083°46'0 0.0
2016-Apr-23 09:32N 46°17' W 083°46'0 0.0
2016-Apr-23 07:28N 46°17' W 083°46'0 0.0
2016-Apr-23 06:13N 46°17' W 083°46'17 3.6
2016-Apr-23 01:33N 46°03' W 083°57'328 8.9
2016-Apr-21 12:33N 46°53' W 091°48'1313.2
2016-Apr-21 11:32N 46°47' W 092°05'3 2.6
2016-Apr-21 10:33N 46°45' W 092°08'0 0.0
2016-Apr-21 09:33N 46°45' W 092°08'0 0.0
2016-Apr-21 08:33N 46°45' W 092°08'0 0.0
2016-Apr-21 07:33N 46°45' W 092°08'0 0.0
2016-Apr-21 06:33N 46°45' W 092°08'0 0.2
2016-Apr-21 05:33N 46°45' W 092°08'2 1.8
2016-Apr-21 04:33N 46°46' W 092°06'1212.0
2016-Apr-21 03:33N 46°51' W 091°50'1414.2
2016-Apr-21 02:33N 46°56' W 091°31'29313.1
2016-Apr-20 04:09N 46°30' W 084°25'2 3.4
2016-Apr-20 03:33N 46°31' W 084°23'0 0.0
2016-Apr-20 02:33N 46°31' W 084°23'0 0.0
2016-Apr-20 01:30N 46°31' W 084°23'0 0.0
2016-Apr-20 00:33N 46°31' W 084°23'16 5.3
2016-Apr-19 21:26N 46°37' W 084°45'29012.7
2016-Apr-18 22:32N 46°53' W 091°48'1313.0
2016-Apr-18 21:33N 46°47' W 092°05'3 2.9
2016-Apr-18 20:33N 46°45' W 092°08'0 0.0
2016-Apr-18 19:33N 46°45' W 092°08'0 0.0
2016-Apr-18 18:33N 46°45' W 092°08'0 0.0
2016-Apr-18 17:33N 46°45' W 092°08'0 0.1
2016-Apr-18 16:33N 46°45' W 092°08'2 1.6
2016-Apr-18 15:33N 46°45' W 092°06'0 0.0
2016-Apr-18 14:33N 46°45' W 092°06'0 0.1
2016-Apr-18 13:33N 46°46' W 092°06'7 7.0
2016-Apr-18 12:33N 46°49' W 091°57'1414.2
2016-Apr-18 11:33N 46°54' W 091°38'29513.3
2016-Apr-17 13:19N 46°27' W 084°29'6 3.1
2016-Apr-17 11:27N 46°31' W 084°23'0 0.0
2016-Apr-17 10:30N 46°31' W 084°23'0 0.0
2016-Apr-17 09:33N 46°31' W 084°23'0 0.0
2016-Apr-17 08:30N 46°31' W 084°23'29912.0
2016-Apr-16 07:32N 46°57' W 091°37'1313.5
2016-Apr-16 06:34N 46°51' W 091°54'10 9.9
2016-Apr-16 05:34N 46°45' W 092°06'1 1.3
2016-Apr-16 04:33N 46°45' W 092°08'0 0.0
2016-Apr-16 03:34N 46°45' W 092°08'0 0.0
2016-Apr-16 02:34N 46°45' W 092°08'0 0.1
2016-Apr-16 01:33N 46°45' W 092°08'0 0.0
2016-Apr-16 00:33N 46°45' W 092°08'2 1.7
2016-Apr-15 23:32N 46°46' W 092°06'1211.7
2016-Apr-15 22:33N 46°51' W 091°51'1414.3
2016-Apr-15 21:33N 46°56' W 091°31'1414.2
2016-Apr-15 20:33N 47°01' W 091°12'  

Dump ship's entire track history